sensor_id;sensor_type;location;lat;lon;timestamp;temperature;humidity
49489;SHT31;35382;51.484;11.476;2023-04-01T00:01:24;7.70;95.59
49489;SHT31;35382;51.484;11.476;2023-04-01T00:03:06;7.63;95.77
49489;SHT31;35382;51.484;11.476;2023-04-01T00:04:47;7.69;95.73
49489;SHT31;35382;51.484;11.476;2023-04-01T00:06:28;7.73;95.82
49489;SHT31;35382;51.484;11.476;2023-04-01T00:08:09;7.70;95.97
49489;SHT31;35382;51.484;11.476;2023-04-01T00:09:50;7.73;95.86
49489;SHT31;35382;51.484;11.476;2023-04-01T00:11:32;7.73;95.85
49489;SHT31;35382;51.484;11.476;2023-04-01T00:13:13;7.76;95.84
49489;SHT31;35382;51.484;11.476;2023-04-01T00:14:54;7.79;95.73
49489;SHT31;35382;51.484;11.476;2023-04-01T00:16:37;7.77;95.80
49489;SHT31;35382;51.484;11.476;2023-04-01T00:18:18;7.86;95.46
49489;SHT31;35382;51.484;11.476;2023-04-01T00:19:59;7.90;95.38
49489;SHT31;35382;51.484;11.476;2023-04-01T00:21:40;8.00;95.00
49489;SHT31;35382;51.484;11.476;2023-04-01T00:23:21;7.97;94.88
49489;SHT31;35382;51.484;11.476;2023-04-01T00:25:03;7.97;94.84
49489;SHT31;35382;51.484;11.476;2023-04-01T00:26:45;7.98;94.95
49489;SHT31;35382;51.484;11.476;2023-04-01T00:28:27;7.93;94.98
49489;SHT31;35382;51.484;11.476;2023-04-01T00:30:08;7.89;95.09
49489;SHT31;35382;51.484;11.476;2023-04-01T00:31:49;7.91;94.84
49489;SHT31;35382;51.484;11.476;2023-04-01T00:33:30;7.86;95.03
49489;SHT31;35382;51.484;11.476;2023-04-01T00:35:14;7.76;95.15
49489;SHT31;35382;51.484;11.476;2023-04-01T00:36:55;7.79;95.33
49489;SHT31;35382;51.484;11.476;2023-04-01T00:38:37;7.71;95.42
49489;SHT31;35382;51.484;11.476;2023-04-01T00:40:24;7.74;95.29
49489;SHT31;35382;51.484;11.476;2023-04-01T00:42:06;7.76;95.28
49489;SHT31;35382;51.484;11.476;2023-04-01T00:43:49;7.74;95.34
49489;SHT31;35382;51.484;11.476;2023-04-01T00:45:34;7.73;95.27
49489;SHT31;35382;51.484;11.476;2023-04-01T00:47:16;7.74;95.32
49489;SHT31;35382;51.484;11.476;2023-04-01T00:48:57;7.71;95.38
49489;SHT31;35382;51.484;11.476;2023-04-01T00:50:40;7.74;95.32
49489;SHT31;35382;51.484;11.476;2023-04-01T00:52:24;7.74;95.27
49489;SHT31;35382;51.484;11.476;2023-04-01T00:54:07;7.70;95.32
49489;SHT31;35382;51.484;11.476;2023-04-01T00:55:56;7.76;95.29
49489;SHT31;35382;51.484;11.476;2023-04-01T00:57:38;7.79;95.23
49489;SHT31;35382;51.484;11.476;2023-04-01T00:59:25;7.76;95.31
49489;SHT31;35382;51.484;11.476;2023-04-01T01:01:08;7.74;95.45
49489;SHT31;35382;51.484;11.476;2023-04-01T01:02:50;7.71;95.59
49489;SHT31;35382;51.484;11.476;2023-04-01T01:04:33;7.76;95.76
49489;SHT31;35382;51.484;11.476;2023-04-01T01:06:18;7.73;95.70
49489;SHT31;35382;51.484;11.476;2023-04-01T01:08:43;7.77;95.72
49489;SHT31;35382;51.484;11.476;2023-04-01T01:10:33;7.77;95.77
49489;SHT31;35382;51.484;11.476;2023-04-01T01:14:39;7.76;95.79
49489;SHT31;35382;51.484;11.476;2023-04-01T01:16:27;7.79;95.68
49489;SHT31;35382;51.484;11.476;2023-04-01T01:20:30;7.83;95.62
49489;SHT31;35382;51.484;11.476;2023-04-01T01:22:26;7.81;95.59
49489;SHT31;35382;51.484;11.476;2023-04-01T01:24:23;7.89;95.49
49489;SHT31;35382;51.484;11.476;2023-04-01T01:26:46;7.91;95.31
49489;SHT31;35382;51.484;11.476;2023-04-01T01:28:35;7.86;95.37
49489;SHT31;35382;51.484;11.476;2023-04-01T01:30:38;7.91;95.06
49489;SHT31;35382;51.484;11.476;2023-04-01T01:32:43;7.91;95.10
49489;SHT31;35382;51.484;11.476;2023-04-01T01:34:31;7.95;94.82
49489;SHT31;35382;51.484;11.476;2023-04-01T01:36:16;7.97;94.71
49489;SHT31;35382;51.484;11.476;2023-04-01T01:38:06;7.90;94.92
49489;SHT31;35382;51.484;11.476;2023-04-01T01:39:52;7.94;94.90
49489;SHT31;35382;51.484;11.476;2023-04-01T01:41:36;7.94;94.87
49489;SHT31;35382;51.484;11.476;2023-04-01T01:43:21;7.91;95.07
49489;SHT31;35382;51.484;11.476;2023-04-01T01:45:06;7.95;94.96
49489;SHT31;35382;51.484;11.476;2023-04-01T01:46:48;7.94;94.90
49489;SHT31;35382;51.484;11.476;2023-04-01T01:48:31;7.95;94.94
49489;SHT31;35382;51.484;11.476;2023-04-01T01:50:14;8.00;94.49
49489;SHT31;35382;51.484;11.476;2023-04-01T01:51:56;7.93;94.97
49489;SHT31;35382;51.484;11.476;2023-04-01T01:53:38;7.97;94.83
49489;SHT31;35382;51.484;11.476;2023-04-01T01:57:09;7.98;94.80
49489;SHT31;35382;51.484;11.476;2023-04-01T01:58:58;7.95;95.08
49489;SHT31;35382;51.484;11.476;2023-04-01T02:00:42;8.00;94.83
49489;SHT31;35382;51.484;11.476;2023-04-01T02:02:25;8.00;94.89
49489;SHT31;35382;51.484;11.476;2023-04-01T02:04:07;8.01;94.62
49489;SHT31;35382;51.484;11.476;2023-04-01T02:05:52;8.03;94.61
49489;SHT31;35382;51.484;11.476;2023-04-01T02:07:35;7.95;95.02
49489;SHT31;35382;51.484;11.476;2023-04-01T02:09:16;7.97;95.22
49489;SHT31;35382;51.484;11.476;2023-04-01T02:11:03;7.95;95.20
49489;SHT31;35382;51.484;11.476;2023-04-01T02:12:53;8.03;95.23
49489;SHT31;35382;51.484;11.476;2023-04-01T02:14:43;8.03;94.73
49489;SHT31;35382;51.484;11.476;2023-04-01T02:16:33;8.01;94.95
49489;SHT31;35382;51.484;11.476;2023-04-01T02:18:16;7.95;95.15
49489;SHT31;35382;51.484;11.476;2023-04-01T02:20:10;8.01;95.27
49489;SHT31;35382;51.484;11.476;2023-04-01T02:21:57;7.94;95.19
49489;SHT31;35382;51.484;11.476;2023-04-01T02:23:40;7.94;95.19
49489;SHT31;35382;51.484;11.476;2023-04-01T02:25:29;7.95;95.23
49489;SHT31;35382;51.484;11.476;2023-04-01T02:27:12;7.95;95.19
49489;SHT31;35382;51.484;11.476;2023-04-01T02:28:54;7.98;95.09
49489;SHT31;35382;51.484;11.476;2023-04-01T02:30:37;7.93;95.21
49489;SHT31;35382;51.484;11.476;2023-04-01T02:32:20;7.95;95.22
49489;SHT31;35382;51.484;11.476;2023-04-01T02:34:02;7.93;95.07
49489;SHT31;35382;51.484;11.476;2023-04-01T02:35:44;7.95;95.15
49489;SHT31;35382;51.484;11.476;2023-04-01T02:37:25;8.03;94.83
49489;SHT31;35382;51.484;11.476;2023-04-01T02:39:08;8.01;94.46
49489;SHT31;35382;51.484;11.476;2023-04-01T02:40:51;7.98;94.52
49489;SHT31;35382;51.484;11.476;2023-04-01T02:42:36;7.94;94.86
49489;SHT31;35382;51.484;11.476;2023-04-01T02:44:18;7.91;95.11
49489;SHT31;35382;51.484;11.476;2023-04-01T02:45:59;7.86;95.12
49489;SHT31;35382;51.484;11.476;2023-04-01T02:47:40;7.86;95.14
49489;SHT31;35382;51.484;11.476;2023-04-01T02:49:22;7.84;95.25
49489;SHT31;35382;51.484;11.476;2023-04-01T02:51:02;7.83;95.53
49489;SHT31;35382;51.484;11.476;2023-04-01T02:52:44;7.83;95.34
49489;SHT31;35382;51.484;11.476;2023-04-01T02:54:25;7.84;95.26
49489;SHT31;35382;51.484;11.476;2023-04-01T02:56:06;7.83;95.23
49489;SHT31;35382;51.484;11.476;2023-04-01T02:57:47;7.79;95.41
49489;SHT31;35382;51.484;11.476;2023-04-01T02:59:28;7.80;95.59
49489;SHT31;35382;51.484;11.476;2023-04-01T03:01:09;7.74;95.80
49489;SHT31;35382;51.484;11.476;2023-04-01T03:02:50;7.76;95.75
49489;SHT31;35382;51.484;11.476;2023-04-01T03:04:31;7.77;95.91
49489;SHT31;35382;51.484;11.476;2023-04-01T03:06:13;7.79;95.79
49489;SHT31;35382;51.484;11.476;2023-04-01T03:07:55;7.79;95.83
49489;SHT31;35382;51.484;11.476;2023-04-01T03:09:37;7.87;95.42
49489;SHT31;35382;51.484;11.476;2023-04-01T03:11:18;7.86;95.66
49489;SHT31;35382;51.484;11.476;2023-04-01T03:13:00;7.80;95.78
49489;SHT31;35382;51.484;11.476;2023-04-01T03:14:41;7.81;95.79
49489;SHT31;35382;51.484;11.476;2023-04-01T03:16:22;7.81;95.79
49489;SHT31;35382;51.484;11.476;2023-04-01T03:18:05;7.81;95.57
49489;SHT31;35382;51.484;11.476;2023-04-01T03:19:46;7.84;95.63
49489;SHT31;35382;51.484;11.476;2023-04-01T03:21:27;7.86;95.39
49489;SHT31;35382;51.484;11.476;2023-04-01T03:23:08;7.89;95.16
49489;SHT31;35382;51.484;11.476;2023-04-01T03:24:50;7.81;95.40
49489;SHT31;35382;51.484;11.476;2023-04-01T03:26:31;7.86;95.39
49489;SHT31;35382;51.484;11.476;2023-04-01T03:28:12;7.81;95.43
49489;SHT31;35382;51.484;11.476;2023-04-01T03:29:53;7.79;95.68
49489;SHT31;35382;51.484;11.476;2023-04-01T03:31:34;7.74;95.71
49489;SHT31;35382;51.484;11.476;2023-04-01T03:33:16;7.77;95.72
49489;SHT31;35382;51.484;11.476;2023-04-01T03:34:57;7.74;95.74
49489;SHT31;35382;51.484;11.476;2023-04-01T03:36:37;7.76;95.64
49489;SHT31;35382;51.484;11.476;2023-04-01T03:38:18;7.76;95.78
49489;SHT31;35382;51.484;11.476;2023-04-01T03:39:59;7.79;95.49
49489;SHT31;35382;51.484;11.476;2023-04-01T03:41:40;7.81;95.46
49489;SHT31;35382;51.484;11.476;2023-04-01T03:43:21;7.83;95.53
49489;SHT31;35382;51.484;11.476;2023-04-01T03:45:03;7.81;95.53
49489;SHT31;35382;51.484;11.476;2023-04-01T03:46:45;7.81;95.55
49489;SHT31;35382;51.484;11.476;2023-04-01T03:48:26;7.81;95.46
49489;SHT31;35382;51.484;11.476;2023-04-01T03:50:07;7.83;95.49
49489;SHT31;35382;51.484;11.476;2023-04-01T03:51:48;7.81;95.59
49489;SHT31;35382;51.484;11.476;2023-04-01T03:53:29;7.84;95.61
49489;SHT31;35382;51.484;11.476;2023-04-01T03:55:13;7.86;95.35
49489;SHT31;35382;51.484;11.476;2023-04-01T03:56:54;7.84;95.30
49489;SHT31;35382;51.484;11.476;2023-04-01T03:58:37;7.89;95.20
49489;SHT31;35382;51.484;11.476;2023-04-01T04:00:21;7.86;95.29
49489;SHT31;35382;51.484;11.476;2023-04-01T04:02:08;7.89;95.08
49489;SHT31;35382;51.484;11.476;2023-04-01T04:03:50;7.93;94.82
49489;SHT31;35382;51.484;11.476;2023-04-01T04:05:31;7.89;94.53
49489;SHT31;35382;51.484;11.476;2023-04-01T04:07:12;7.94;94.51
49489;SHT31;35382;51.484;11.476;2023-04-01T04:09:16;7.90;94.57
49489;SHT31;35382;51.484;11.476;2023-04-01T04:10:57;7.93;94.42
49489;SHT31;35382;51.484;11.476;2023-04-01T04:12:38;8.00;93.83
49489;SHT31;35382;51.484;11.476;2023-04-01T04:14:19;8.00;93.71
49489;SHT31;35382;51.484;11.476;2023-04-01T04:16:02;8.00;93.72
49489;SHT31;35382;51.484;11.476;2023-04-01T04:17:45;7.97;93.59
49489;SHT31;35382;51.484;11.476;2023-04-01T04:19:26;8.04;93.06
49489;SHT31;35382;51.484;11.476;2023-04-01T04:21:12;8.04;93.09
49489;SHT31;35382;51.484;11.476;2023-04-01T04:22:53;8.05;92.91
49489;SHT31;35382;51.484;11.476;2023-04-01T04:24:37;8.10;92.60
49489;SHT31;35382;51.484;11.476;2023-04-01T04:26:24;8.10;92.56
49489;SHT31;35382;51.484;11.476;2023-04-01T04:28:13;8.08;92.86
49489;SHT31;35382;51.484;11.476;2023-04-01T04:29:54;8.10;92.42
49489;SHT31;35382;51.484;11.476;2023-04-01T04:31:35;8.14;92.34
49489;SHT31;35382;51.484;11.476;2023-04-01T04:33:16;8.10;92.84
49489;SHT31;35382;51.484;11.476;2023-04-01T04:34:57;8.08;92.81
49489;SHT31;35382;51.484;11.476;2023-04-01T04:36:38;8.14;92.74
49489;SHT31;35382;51.484;11.476;2023-04-01T04:38:19;8.18;92.24
49489;SHT31;35382;51.484;11.476;2023-04-01T04:40:00;8.20;92.10
49489;SHT31;35382;51.484;11.476;2023-04-01T04:41:42;8.18;92.16
49489;SHT31;35382;51.484;11.476;2023-04-01T04:43:23;8.17;91.91
49489;SHT31;35382;51.484;11.476;2023-04-01T04:45:05;8.17;92.21
49489;SHT31;35382;51.484;11.476;2023-04-01T04:46:47;8.15;91.52
49489;SHT31;35382;51.484;11.476;2023-04-01T04:48:29;8.13;91.95
49489;SHT31;35382;51.484;11.476;2023-04-01T04:50:10;8.11;91.82
49489;SHT31;35382;51.484;11.476;2023-04-01T04:51:54;8.17;91.45
49489;SHT31;35382;51.484;11.476;2023-04-01T04:53:38;8.20;91.42
49489;SHT31;35382;51.484;11.476;2023-04-01T04:55:20;8.20;91.01
49489;SHT31;35382;51.484;11.476;2023-04-01T04:57:05;8.24;91.23
49489;SHT31;35382;51.484;11.476;2023-04-01T04:58:52;8.23;91.14
49489;SHT31;35382;51.484;11.476;2023-04-01T05:00:37;8.26;91.19
49489;SHT31;35382;51.484;11.476;2023-04-01T05:02:23;8.26;90.77
49489;SHT31;35382;51.484;11.476;2023-04-01T05:04:04;8.27;91.32
49489;SHT31;35382;51.484;11.476;2023-04-01T05:05:50;8.27;91.29
49489;SHT31;35382;51.484;11.476;2023-04-01T05:07:31;8.27;90.86
49489;SHT31;35382;51.484;11.476;2023-04-01T05:09:13;8.30;90.80
49489;SHT31;35382;51.484;11.476;2023-04-01T05:10:55;8.36;90.72
49489;SHT31;35382;51.484;11.476;2023-04-01T05:12:36;8.34;90.37
49489;SHT31;35382;51.484;11.476;2023-04-01T05:14:20;8.36;90.69
49489;SHT31;35382;51.484;11.476;2023-04-01T05:16:12;8.37;90.38
49489;SHT31;35382;51.484;11.476;2023-04-01T05:17:54;8.41;89.95
49489;SHT31;35382;51.484;11.476;2023-04-01T05:19:34;8.38;90.54
49489;SHT31;35382;51.484;11.476;2023-04-01T05:21:15;8.38;90.57
49489;SHT31;35382;51.484;11.476;2023-04-01T05:22:58;8.44;90.16
49489;SHT31;35382;51.484;11.476;2023-04-01T05:24:39;8.41;90.05
49489;SHT31;35382;51.484;11.476;2023-04-01T05:26:20;8.36;90.79
49489;SHT31;35382;51.484;11.476;2023-04-01T05:28:01;8.40;90.66
49489;SHT31;35382;51.484;11.476;2023-04-01T05:29:42;8.37;90.93
49489;SHT31;35382;51.484;11.476;2023-04-01T05:31:30;8.36;91.09
49489;SHT31;35382;51.484;11.476;2023-04-01T05:33:12;8.31;91.21
49489;SHT31;35382;51.484;11.476;2023-04-01T05:34:53;8.31;91.48
49489;SHT31;35382;51.484;11.476;2023-04-01T05:36:34;8.31;91.91
49489;SHT31;35382;51.484;11.476;2023-04-01T05:38:16;8.24;92.13
49489;SHT31;35382;51.484;11.476;2023-04-01T05:39:57;8.28;92.06
49489;SHT31;35382;51.484;11.476;2023-04-01T05:41:39;8.21;92.46
49489;SHT31;35382;51.484;11.476;2023-04-01T05:43:21;8.18;92.40
49489;SHT31;35382;51.484;11.476;2023-04-01T05:45:04;8.20;92.57
49489;SHT31;35382;51.484;11.476;2023-04-01T05:47:05;8.18;92.73
49489;SHT31;35382;51.484;11.476;2023-04-01T05:48:47;8.13;92.84
49489;SHT31;35382;51.484;11.476;2023-04-01T05:50:28;8.15;92.86
49489;SHT31;35382;51.484;11.476;2023-04-01T05:52:09;8.17;92.99
49489;SHT31;35382;51.484;11.476;2023-04-01T05:53:50;8.15;92.88
49489;SHT31;35382;51.484;11.476;2023-04-01T05:55:34;8.13;93.09
49489;SHT31;35382;51.484;11.476;2023-04-01T05:57:15;8.11;93.05
49489;SHT31;35382;51.484;11.476;2023-04-01T05:58:56;8.13;93.38
49489;SHT31;35382;51.484;11.476;2023-04-01T06:00:38;8.13;93.39
49489;SHT31;35382;51.484;11.476;2023-04-01T06:02:19;8.14;93.27
49489;SHT31;35382;51.484;11.476;2023-04-01T06:04:00;8.18;93.32
49489;SHT31;35382;51.484;11.476;2023-04-01T06:05:43;8.18;92.87
49489;SHT31;35382;51.484;11.476;2023-04-01T06:07:24;8.24;92.62
49489;SHT31;35382;51.484;11.476;2023-04-01T06:09:17;8.30;92.69
49489;SHT31;35382;51.484;11.476;2023-04-01T06:11:22;8.36;92.60
49489;SHT31;35382;51.484;11.476;2023-04-01T06:13:06;8.34;92.64
49489;SHT31;35382;51.484;11.476;2023-04-01T06:25:30;8.42;92.33
49489;SHT31;35382;51.484;11.476;2023-04-01T06:31:25;8.52;92.57
49489;SHT31;35382;51.484;11.476;2023-04-01T06:45:51;8.76;90.68
49489;SHT31;35382;51.484;11.476;2023-04-01T06:57:26;9.05;90.39
49489;SHT31;35382;51.484;11.476;2023-04-01T06:59:22;8.99;90.25
49489;SHT31;35382;51.484;11.476;2023-04-01T07:01:14;9.09;90.49
49489;SHT31;35382;51.484;11.476;2023-04-01T07:03:06;9.05;90.44
49489;SHT31;35382;51.484;11.476;2023-04-01T07:04:55;9.12;90.65
49489;SHT31;35382;51.484;11.476;2023-04-01T07:06:53;9.15;90.33
49489;SHT31;35382;51.484;11.476;2023-04-01T07:08:36;9.11;90.57
49489;SHT31;35382;51.484;11.476;2023-04-01T07:10:45;9.06;90.38
49489;SHT31;35382;51.484;11.476;2023-04-01T07:12:54;9.18;90.33
49489;SHT31;35382;51.484;11.476;2023-04-01T07:14:41;9.11;90.01
49489;SHT31;35382;51.484;11.476;2023-04-01T07:18:16;9.23;89.12
49489;SHT31;35382;51.484;11.476;2023-04-01T07:20:05;9.32;89.62
49489;SHT31;35382;51.484;11.476;2023-04-01T07:22:04;9.33;88.92
49489;SHT31;35382;51.484;11.476;2023-04-01T07:24:13;9.47;89.54
49489;SHT31;35382;51.484;11.476;2023-04-01T07:26:20;9.51;88.50
49489;SHT31;35382;51.484;11.476;2023-04-01T07:28:30;9.62;88.32
49489;SHT31;35382;51.484;11.476;2023-04-01T07:30:19;9.73;88.38
49489;SHT31;35382;51.484;11.476;2023-04-01T07:36:08;9.98;86.62
49489;SHT31;35382;51.484;11.476;2023-04-01T07:39:45;9.96;86.24
49489;SHT31;35382;51.484;11.476;2023-04-01T07:52:05;10.01;86.04
49489;SHT31;35382;51.484;11.476;2023-04-01T07:54:10;10.14;85.83
49489;SHT31;35382;51.484;11.476;2023-04-01T07:59:46;10.36;86.00
49489;SHT31;35382;51.484;11.476;2023-04-01T08:06:09;10.30;85.79
49489;SHT31;35382;51.484;11.476;2023-04-01T08:08:19;10.17;85.35
49489;SHT31;35382;51.484;11.476;2023-04-01T08:10:29;10.20;85.84
49489;SHT31;35382;51.484;11.476;2023-04-01T08:14:26;10.14;85.31
49489;SHT31;35382;51.484;11.476;2023-04-01T08:20:34;10.37;85.65
49489;SHT31;35382;51.484;11.476;2023-04-01T08:22:25;10.48;84.83
49489;SHT31;35382;51.484;11.476;2023-04-01T08:24:31;10.45;85.22
49489;SHT31;35382;51.484;11.476;2023-04-01T08:26:43;10.41;84.16
49489;SHT31;35382;51.484;11.476;2023-04-01T08:28:37;10.30;84.81
49489;SHT31;35382;51.484;11.476;2023-04-01T08:32:35;10.21;84.80
49489;SHT31;35382;51.484;11.476;2023-04-01T08:34:21;10.20;84.34
49489;SHT31;35382;51.484;11.476;2023-04-01T08:36:27;10.16;84.01
49489;SHT31;35382;51.484;11.476;2023-04-01T08:45:21;10.57;83.91
49489;SHT31;35382;51.484;11.476;2023-04-01T08:49:46;10.48;82.92
49489;SHT31;35382;51.484;11.476;2023-04-01T08:52:19;10.40;82.66
49489;SHT31;35382;51.484;11.476;2023-04-01T08:54:25;10.30;83.39
49489;SHT31;35382;51.484;11.476;2023-04-01T08:58:31;10.34;85.61
49489;SHT31;35382;51.484;11.476;2023-04-01T09:15:50;10.07;85.15
49489;SHT31;35382;51.484;11.476;2023-04-01T09:22:50;10.22;85.20
49489;SHT31;35382;51.484;11.476;2023-04-01T09:27:03;10.40;85.17
49489;SHT31;35382;51.484;11.476;2023-04-01T09:28:54;10.48;84.51
49489;SHT31;35382;51.484;11.476;2023-04-01T09:34:52;10.69;83.77
49489;SHT31;35382;51.484;11.476;2023-04-01T09:38:49;10.88;82.42
49489;SHT31;35382;51.484;11.476;2023-04-01T09:40:51;11.02;82.39
49489;SHT31;35382;51.484;11.476;2023-04-01T09:43:13;11.19;82.90
49489;SHT31;35382;51.484;11.476;2023-04-01T09:45:00;11.32;81.34
49489;SHT31;35382;51.484;11.476;2023-04-01T09:47:01;11.36;81.56
49489;SHT31;35382;51.484;11.476;2023-04-01T09:49:12;11.36;81.42
49489;SHT31;35382;51.484;11.476;2023-04-01T09:51:26;11.26;80.21
49489;SHT31;35382;51.484;11.476;2023-04-01T09:53:20;11.16;81.79
49489;SHT31;35382;51.484;11.476;2023-04-01T10:01:34;11.30;82.16
49489;SHT31;35382;51.484;11.476;2023-04-01T10:05:58;11.01;82.68
49489;SHT31;35382;51.484;11.476;2023-04-01T10:08:28;10.79;81.79
49489;SHT31;35382;51.484;11.476;2023-04-01T10:15:00;10.88;83.53
49489;SHT31;35382;51.484;11.476;2023-04-01T10:17:13;11.05;83.67
49489;SHT31;35382;51.484;11.476;2023-04-01T10:21:56;10.91;83.96
49489;SHT31;35382;51.484;11.476;2023-04-01T10:23:49;10.81;84.35
49489;SHT31;35382;51.484;11.476;2023-04-01T10:26:03;10.94;85.45
49489;SHT31;35382;51.484;11.476;2023-04-01T10:31:09;11.67;83.75
49489;SHT31;35382;51.484;11.476;2023-04-01T10:44:15;10.44;88.67
49489;SHT31;35382;51.484;11.476;2023-04-01T10:55:48;10.71;89.59
49489;SHT31;35382;51.484;11.476;2023-04-01T11:03:03;10.76;88.75
49489;SHT31;35382;51.484;11.476;2023-04-01T11:18:46;10.91;86.88
49489;SHT31;35382;51.484;11.476;2023-04-01T11:21:03;10.69;87.40
49489;SHT31;35382;51.484;11.476;2023-04-01T11:23:22;10.68;88.87
49489;SHT31;35382;51.484;11.476;2023-04-01T11:29:18;10.65;88.88
49489;SHT31;35382;51.484;11.476;2023-04-01T11:31:16;10.75;87.99
49489;SHT31;35382;51.484;11.476;2023-04-01T11:33:18;10.95;88.00
49489;SHT31;35382;51.484;11.476;2023-04-01T11:39:23;11.18;87.54
49489;SHT31;35382;51.484;11.476;2023-04-01T11:41:34;11.36;87.95
49489;SHT31;35382;51.484;11.476;2023-04-01T11:46:37;11.15;86.36
49489;SHT31;35382;51.484;11.476;2023-04-01T11:48:52;11.16;86.44
49489;SHT31;35382;51.484;11.476;2023-04-01T11:53:06;10.99;86.66
49489;SHT31;35382;51.484;11.476;2023-04-01T11:57:33;10.98;87.34
49489;SHT31;35382;51.484;11.476;2023-04-01T12:05:43;11.25;88.29
49489;SHT31;35382;51.484;11.476;2023-04-01T12:07:40;11.36;87.78
49489;SHT31;35382;51.484;11.476;2023-04-01T12:11:48;11.47;85.83
49489;SHT31;35382;51.484;11.476;2023-04-01T12:13:54;11.63;86.07
49489;SHT31;35382;51.484;11.476;2023-04-01T12:19:37;11.52;86.54
49489;SHT31;35382;51.484;11.476;2023-04-01T12:21:43;11.58;84.36
49489;SHT31;35382;51.484;11.476;2023-04-01T12:24:02;11.49;85.14
49489;SHT31;35382;51.484;11.476;2023-04-01T12:26:10;11.43;85.93
49489;SHT31;35382;51.484;11.476;2023-04-01T12:36:00;11.55;84.60
49489;SHT31;35382;51.484;11.476;2023-04-01T12:39:56;11.44;86.13
49489;SHT31;35382;51.484;11.476;2023-04-01T12:41:55;11.49;85.45
49489;SHT31;35382;51.484;11.476;2023-04-01T12:52:21;11.15;86.43
49489;SHT31;35382;51.484;11.476;2023-04-01T13:00:32;11.01;87.98
49489;SHT31;35382;51.484;11.476;2023-04-01T13:04:37;11.01;87.75
49489;SHT31;35382;51.484;11.476;2023-04-01T13:08:40;10.61;87.82
49489;SHT31;35382;51.484;11.476;2023-04-01T13:10:40;10.58;89.03
49489;SHT31;35382;51.484;11.476;2023-04-01T13:16:27;10.55;89.81
49489;SHT31;35382;51.484;11.476;2023-04-01T13:22:10;10.85;89.87
49489;SHT31;35382;51.484;11.476;2023-04-01T13:26:13;11.04;89.81
49489;SHT31;35382;51.484;11.476;2023-04-01T13:28:00;11.09;89.04
49489;SHT31;35382;51.484;11.476;2023-04-01T13:29:51;10.94;89.39
49489;SHT31;35382;51.484;11.476;2023-04-01T13:33:38;10.98;88.31
49489;SHT31;35382;51.484;11.476;2023-04-01T13:37:13;11.09;88.12
49489;SHT31;35382;51.484;11.476;2023-04-01T13:41:40;10.94;87.91
49489;SHT31;35382;51.484;11.476;2023-04-01T13:43:30;11.09;87.75
49489;SHT31;35382;51.484;11.476;2023-04-01T13:45:21;11.08;88.07
49489;SHT31;35382;51.484;11.476;2023-04-01T13:47:23;10.95;86.72
49489;SHT31;35382;51.484;11.476;2023-04-01T13:49:19;10.98;86.79
49489;SHT31;35382;51.484;11.476;2023-04-01T13:55:04;10.98;86.29
49489;SHT31;35382;51.484;11.476;2023-04-01T13:58:45;11.08;86.62
49489;SHT31;35382;51.484;11.476;2023-04-01T14:00:32;11.12;87.42
49489;SHT31;35382;51.484;11.476;2023-04-01T14:11:05;11.19;86.58
49489;SHT31;35382;51.484;11.476;2023-04-01T14:12:59;11.26;85.66
49489;SHT31;35382;51.484;11.476;2023-04-01T14:19:22;11.08;87.71
49489;SHT31;35382;51.484;11.476;2023-04-01T14:21:31;11.04;88.38
49489;SHT31;35382;51.484;11.476;2023-04-01T14:33:28;11.09;87.79
49489;SHT31;35382;51.484;11.476;2023-04-01T14:35:40;10.88;88.32
49489;SHT31;35382;51.484;11.476;2023-04-01T14:37:36;10.94;88.31
49489;SHT31;35382;51.484;11.476;2023-04-01T14:39:29;10.79;89.76
49489;SHT31;35382;51.484;11.476;2023-04-01T14:49:19;10.85;89.04
49489;SHT31;35382;51.484;11.476;2023-04-01T14:51:13;10.84;89.08
49489;SHT31;35382;51.484;11.476;2023-04-01T14:54:42;10.95;89.39
49489;SHT31;35382;51.484;11.476;2023-04-01T14:58:21;10.92;89.83
49489;SHT31;35382;51.484;11.476;2023-04-01T15:02:02;10.95;89.13
49489;SHT31;35382;51.484;11.476;2023-04-01T15:05:49;11.06;87.93
49489;SHT31;35382;51.484;11.476;2023-04-01T15:11:19;10.98;87.45
49489;SHT31;35382;51.484;11.476;2023-04-01T15:15:20;11.04;88.91
49489;SHT31;35382;51.484;11.476;2023-04-01T15:17:27;10.99;88.48
49489;SHT31;35382;51.484;11.476;2023-04-01T15:23:27;10.94;89.36
49489;SHT31;35382;51.484;11.476;2023-04-01T15:25:35;10.99;88.33
49489;SHT31;35382;51.484;11.476;2023-04-01T15:33:41;10.98;88.53
49489;SHT31;35382;51.484;11.476;2023-04-01T15:35:57;10.96;89.55
49489;SHT31;35382;51.484;11.476;2023-04-01T15:43:43;10.76;89.12
49489;SHT31;35382;51.484;11.476;2023-04-01T15:45:33;10.76;89.93
49489;SHT31;35382;51.484;11.476;2023-04-01T15:49:12;10.79;89.54
49489;SHT31;35382;51.484;11.476;2023-04-01T15:51:09;10.78;89.70
49489;SHT31;35382;51.484;11.476;2023-04-01T15:59:04;10.60;90.59
49489;SHT31;35382;51.484;11.476;2023-04-01T16:01:19;10.75;90.04
49489;SHT31;35382;51.484;11.476;2023-04-01T16:03:12;10.71;90.37
49489;SHT31;35382;51.484;11.476;2023-04-01T16:05:04;10.76;89.97
49489;SHT31;35382;51.484;11.476;2023-04-01T16:09:29;10.58;90.33
49489;SHT31;35382;51.484;11.476;2023-04-01T16:11:34;10.52;90.98
49489;SHT31;35382;51.484;11.476;2023-04-01T16:13:24;10.58;90.27
49489;SHT31;35382;51.484;11.476;2023-04-01T16:17:11;10.50;90.58
49489;SHT31;35382;51.484;11.476;2023-04-01T16:21:01;10.42;91.08
49489;SHT31;35382;51.484;11.476;2023-04-01T16:22:58;10.36;91.49
49489;SHT31;35382;51.484;11.476;2023-04-01T16:25:07;10.45;91.02
49489;SHT31;35382;51.484;11.476;2023-04-01T16:27:13;10.36;90.65
49489;SHT31;35382;51.484;11.476;2023-04-01T16:29:24;10.33;91.19
49489;SHT31;35382;51.484;11.476;2023-04-01T16:31:23;10.31;91.37
49489;SHT31;35382;51.484;11.476;2023-04-01T16:35:23;10.28;91.57
49489;SHT31;35382;51.484;11.476;2023-04-01T16:37:10;10.20;91.78
49489;SHT31;35382;51.484;11.476;2023-04-01T16:42:51;10.38;91.41
49489;SHT31;35382;51.484;11.476;2023-04-01T16:44:50;10.30;91.55
49489;SHT31;35382;51.484;11.476;2023-04-01T16:46:43;10.24;91.94
49489;SHT31;35382;51.484;11.476;2023-04-01T16:48:49;10.24;91.97
49489;SHT31;35382;51.484;11.476;2023-04-01T16:51:00;10.20;92.25
49489;SHT31;35382;51.484;11.476;2023-04-01T16:53:02;10.24;92.28
49489;SHT31;35382;51.484;11.476;2023-04-01T16:54:56;10.20;91.97
49489;SHT31;35382;51.484;11.476;2023-04-01T16:58:36;10.10;92.39
49489;SHT31;35382;51.484;11.476;2023-04-01T17:02:14;10.13;92.66
49489;SHT31;35382;51.484;11.476;2023-04-01T17:04:10;10.08;92.74
49489;SHT31;35382;51.484;11.476;2023-04-01T17:06:06;10.03;92.93
49489;SHT31;35382;51.484;11.476;2023-04-01T17:07:59;9.97;92.87
49489;SHT31;35382;51.484;11.476;2023-04-01T17:10:01;9.97;92.92
49489;SHT31;35382;51.484;11.476;2023-04-01T17:12:00;9.86;93.71